Terminal Aerodrome Forecast
Issued by NWS

Home | Current Version | Previous Version | Text Only | Print | Product List | Glossary On
Versions: 1 2 3 4 5 6 7 8 9 10 11 12 13 14 15 16 17 18 19 20
000
FTUS45 KSLC 230529
TAF36U
TAF
K36U 230529Z 2306/2406 16010KT 4SM -SHSN BR SCT010 BKN025
     FM230900 28006KT P6SM VCSH SCT040 BKN080
     FM231200 VRB05KT P6SM SCT060 BKN120
     FM240300 VRB04KT P6SM SCT120=

USA.gov is the U.S. government's official web portal to all federal, state and local government web resources and services.